createdAt,value
2023-03-07T00:00:16.254Z,11.73
2023-03-07T00:02:43.264Z,7.47
2023-03-07T00:05:10.237Z,11.07
2023-03-07T00:07:37.163Z,10.52
2023-03-07T00:10:04.228Z,10.73
2023-03-07T00:12:31.070Z,13.52
2023-03-07T00:14:57.812Z,10.70
2023-03-07T00:17:24.610Z,11.85
2023-03-07T00:19:51.363Z,8.55
2023-03-07T00:22:18.223Z,14.20
2023-03-07T00:24:47.426Z,9.60
2023-03-07T00:27:14.340Z,10.23
2023-03-07T00:29:41.308Z,14.88
2023-03-07T00:32:08.066Z,12.55
2023-03-07T00:34:34.823Z,9.60
2023-03-07T00:37:01.688Z,10.93
2023-03-07T00:39:28.436Z,10.77
2023-03-07T00:41:55.366Z,8.20
2023-03-07T00:44:22.528Z,12.90
2023-03-07T00:46:49.270Z,11.27
2023-03-07T00:49:16.083Z,10.80
2023-03-07T00:51:42.807Z,10.75
2023-03-07T00:54:09.583Z,15.27
2023-03-07T00:56:36.392Z,10.82
2023-03-07T00:59:03.444Z,8.43
2023-03-07T01:01:30.287Z,9.93
2023-03-07T01:03:57.201Z,10.25
2023-03-07T01:06:26.786Z,7.07
2023-03-07T01:08:56.774Z,8.75
2023-03-07T01:11:24.369Z,8.47
2023-03-07T01:13:51.191Z,9.98
2023-03-07T01:16:26.816Z,11.15
2023-03-07T01:18:56.183Z,12.07
2023-03-07T01:21:28.652Z,10.88
2023-03-07T01:23:56.896Z,8.27
2023-03-07T01:26:26.406Z,13.80
2023-03-07T01:28:56.354Z,8.02
2023-03-07T01:31:23.889Z,6.80
2023-03-07T01:33:52.366Z,7.32
2023-03-07T01:36:29.736Z,4.57
2023-03-07T01:39:10.235Z,10.30
2023-03-07T01:41:40.080Z,6.70
2023-03-07T01:44:16.564Z,11.20
2023-03-07T01:46:49.379Z,9.15
2023-03-07T01:49:23.683Z,6.83
2023-03-07T01:52:12.719Z,6.35
2023-03-07T01:54:48.918Z,10.48
2023-03-07T01:57:24.916Z,5.93
2023-03-07T01:59:56.393Z,12.35
2023-03-07T02:02:24.587Z,9.27
2023-03-07T02:05:03.901Z,5.82
2023-03-07T02:07:37.253Z,13.15
2023-03-07T02:10:05.682Z,7.30
2023-03-07T02:12:32.965Z,5.22
2023-03-07T02:14:59.942Z,7.27
2023-03-07T02:17:27.869Z,8.25
2023-03-07T02:20:02.713Z,7.82
2023-03-07T02:22:29.551Z,7.28
2023-03-07T02:25:14.631Z,8.05
2023-03-07T02:27:42.272Z,10.80
2023-03-07T02:30:10.349Z,10.20
2023-03-07T02:32:37.515Z,10.98
2023-03-07T02:35:14.920Z,12.43
2023-03-07T02:37:45.499Z,6.90
2023-03-07T02:40:16.496Z,10.03
2023-03-07T02:42:44.088Z,8.02
2023-03-07T02:45:17.155Z,7.32
2023-03-07T02:47:45.001Z,7.00
2023-03-07T02:50:15.448Z,9.88
2023-03-07T02:52:45.318Z,10.73
2023-03-07T02:55:12.805Z,6.57
2023-03-07T02:57:46.047Z,9.40
2023-03-07T03:00:13.276Z,5.72
2023-03-07T03:02:40.621Z,10.65
2023-03-07T03:05:08.296Z,11.57
2023-03-07T03:07:35.087Z,6.72
2023-03-07T03:10:02.642Z,5.00
2023-03-07T03:12:31.702Z,7.05
2023-03-07T03:14:59.126Z,6.43
2023-03-07T03:17:26.196Z,8.20
2023-03-07T03:19:53.000Z,8.40
2023-03-07T03:22:20.602Z,10.02
2023-03-07T03:24:49.224Z,5.57
2023-03-07T03:27:17.602Z,8.67
2023-03-07T03:29:46.371Z,9.38
2023-03-07T03:32:13.496Z,6.93
2023-03-07T03:34:43.139Z,10.80
2023-03-07T03:37:09.855Z,10.52
2023-03-07T03:39:37.651Z,13.70
2023-03-07T03:42:06.143Z,7.43
2023-03-07T03:44:33.195Z,7.93
2023-03-07T03:47:00.184Z,13.27
2023-03-07T03:49:27.385Z,8.00
2023-03-07T03:51:55.044Z,12.70
2023-03-07T03:54:21.976Z,12.23
2023-03-07T03:56:48.847Z,8.95
2023-03-07T03:59:15.575Z,9.15
2023-03-07T04:01:42.906Z,7.90
2023-03-07T04:04:09.703Z,10.97
2023-03-07T04:06:37.674Z,10.65
2023-03-07T04:09:05.391Z,8.73
2023-03-07T04:11:32.836Z,6.65
2023-03-07T04:13:59.654Z,10.45
2023-03-07T04:16:26.561Z,12.30
2023-03-07T04:18:53.639Z,7.95
2023-03-07T04:21:21.163Z,9.15
2023-03-07T04:23:50.238Z,7.80
2023-03-07T04:26:17.214Z,10.70
2023-03-07T04:28:49.149Z,6.83
2023-03-07T04:31:29.729Z,10.68
2023-03-07T04:33:59.091Z,7.20
2023-03-07T04:36:26.522Z,7.90
2023-03-07T04:38:53.212Z,7.22
2023-03-07T04:41:23.566Z,12.47
2023-03-07T04:43:54.690Z,6.97
2023-03-07T04:46:23.372Z,7.85
2023-03-07T04:48:50.265Z,6.63
2023-03-07T04:51:17.444Z,6.55
2023-03-07T04:53:44.731Z,8.33
2023-03-07T04:56:11.635Z,11.55
2023-03-07T04:58:40.998Z,5.28
2023-03-07T05:01:08.032Z,8.48
2023-03-07T05:03:35.887Z,6.35
2023-03-07T05:06:06.100Z,12.47
2023-03-07T05:08:33.341Z,6.00
2023-03-07T05:11:00.766Z,7.80
2023-03-07T05:13:28.554Z,5.00
2023-03-07T05:15:57.645Z,4.15
2023-03-07T05:18:26.375Z,6.03
2023-03-07T05:20:55.017Z,6.38
2023-03-07T05:23:22.019Z,7.95
2023-03-07T05:25:50.253Z,9.13
2023-03-07T05:28:17.508Z,4.53
2023-03-07T05:30:45.378Z,3.90
2023-03-07T05:33:13.958Z,4.30
2023-03-07T05:35:41.498Z,4.88
2023-03-07T05:38:10.130Z,3.42
2023-03-07T05:40:37.046Z,3.08
2023-03-07T05:43:04.849Z,3.20
2023-03-07T05:45:32.155Z,4.80
2023-03-07T05:48:00.293Z,3.92
2023-03-07T05:50:27.522Z,3.05
2023-03-07T05:52:54.632Z,5.45
2023-03-07T05:55:21.952Z,2.43
2023-03-07T05:57:50.219Z,3.28
2023-03-07T06:00:17.980Z,3.63
2023-03-07T06:02:52.620Z,2.25
2023-03-07T06:05:19.422Z,3.10
2023-03-07T06:07:46.904Z,3.27
2023-03-07T06:10:15.095Z,2.53
2023-03-07T06:12:42.071Z,5.63
2023-03-07T06:15:09.247Z,5.93
2023-03-07T06:17:36.981Z,4.38
2023-03-07T06:20:04.926Z,5.83
2023-03-07T06:22:32.206Z,3.58
2023-03-07T06:24:59.241Z,3.10
2023-03-07T06:27:26.137Z,6.28
2023-03-07T06:29:52.991Z,4.53
2023-03-07T06:32:19.859Z,3.83
2023-03-07T06:34:46.696Z,2.38
2023-03-07T06:37:14.151Z,3.38
2023-03-07T06:39:41.584Z,4.10
2023-03-07T06:42:08.619Z,3.78
2023-03-07T06:44:35.516Z,3.97
2023-03-07T06:47:02.331Z,7.80
2023-03-07T06:49:29.452Z,3.67
2023-03-07T06:51:56.367Z,6.55
2023-03-07T06:54:23.144Z,8.43
2023-03-07T06:56:51.636Z,4.82
2023-03-07T06:59:21.610Z,3.10
2023-03-07T07:01:48.803Z,3.67
2023-03-07T07:04:17.490Z,5.87
2023-03-07T07:06:44.818Z,5.90
2023-03-07T07:09:14.018Z,5.10
2023-03-07T07:11:40.901Z,6.15
2023-03-07T07:14:11.390Z,5.40
2023-03-07T07:16:39.821Z,8.38
2023-03-07T07:19:08.472Z,4.05
2023-03-07T07:21:36.046Z,5.65
2023-03-07T07:24:03.288Z,4.07
2023-03-07T07:26:30.200Z,8.77
2023-03-07T07:28:59.061Z,5.50
2023-03-07T07:31:25.845Z,7.93
2023-03-07T07:33:52.700Z,5.22
2023-03-07T07:36:22.069Z,6.22
2023-03-07T07:38:50.629Z,4.00
2023-03-07T07:41:18.302Z,5.13
2023-03-07T07:43:46.706Z,5.50
2023-03-07T07:46:25.659Z,4.13
2023-03-07T07:48:52.469Z,5.83
2023-03-07T07:51:19.252Z,4.53
2023-03-07T07:53:46.405Z,4.95
2023-03-07T07:56:13.487Z,5.38
2023-03-07T07:58:40.739Z,3.38
2023-03-07T08:01:15.809Z,5.80
2023-03-07T08:03:42.624Z,5.45
2023-03-07T08:06:09.657Z,3.40
2023-03-07T08:08:36.728Z,5.55
2023-03-07T08:11:03.980Z,6.60
2023-03-07T08:13:30.928Z,4.25
2023-03-07T08:15:57.695Z,3.47
2023-03-07T08:18:24.579Z,4.22
2023-03-07T08:20:51.512Z,6.10
2023-03-07T08:23:18.276Z,4.10
2023-03-07T08:25:45.010Z,3.10
2023-03-07T08:28:11.794Z,5.32
2023-03-07T08:30:38.630Z,4.97
2023-03-07T08:33:05.335Z,4.38
2023-03-07T08:35:32.270Z,5.57
2023-03-07T08:38:00.468Z,4.72
2023-03-07T08:40:29.048Z,4.05
2023-03-07T08:42:55.898Z,6.07
2023-03-07T08:45:23.366Z,6.65
2023-03-07T08:47:53.581Z,4.27
2023-03-07T08:50:21.726Z,5.13
2023-03-07T08:52:48.578Z,5.60
2023-03-07T08:55:16.794Z,5.22
2023-03-07T08:57:45.595Z,7.10
2023-03-07T09:00:13.136Z,4.88
2023-03-07T09:02:40.302Z,5.25
2023-03-07T09:05:07.476Z,7.40
2023-03-07T09:07:34.203Z,5.30
2023-03-07T09:10:01.081Z,4.00
2023-03-07T09:12:27.840Z,7.00
2023-03-07T09:14:55.045Z,5.25
2023-03-07T09:17:21.806Z,5.90
2023-03-07T09:19:50.563Z,4.93
2023-03-07T09:22:17.616Z,4.23
2023-03-07T09:24:44.378Z,5.78
2023-03-07T09:27:11.446Z,5.20
2023-03-07T09:29:38.229Z,5.65
2023-03-07T09:32:05.237Z,5.20
2023-03-07T09:34:32.031Z,5.20
2023-03-07T09:36:58.954Z,5.10
2023-03-07T09:39:26.073Z,4.18
2023-03-07T09:42:13.427Z,4.88
2023-03-07T09:45:20.586Z,7.88
2023-03-07T09:48:27.547Z,6.50
2023-03-07T09:51:10.369Z,3.63
2023-03-07T09:53:43.307Z,3.30
2023-03-07T09:56:19.629Z,3.63
2023-03-07T09:58:51.890Z,4.90
2023-03-07T10:01:23.003Z,4.90
2023-03-07T10:04:05.394Z,4.68
2023-03-07T10:06:41.365Z,7.30
2023-03-07T10:09:18.507Z,7.05
2023-03-07T10:11:54.114Z,3.33
2023-03-07T10:14:31.523Z,4.37
2023-03-07T10:17:20.225Z,6.95
2023-03-07T10:19:52.781Z,9.23
2023-03-07T10:22:34.171Z,4.47
2023-03-07T10:25:16.022Z,7.95
2023-03-07T10:27:46.777Z,3.13
2023-03-07T10:30:20.640Z,4.95
2023-03-07T10:32:51.873Z,3.95
2023-03-07T10:35:42.635Z,3.55
2023-03-07T10:38:42.727Z,4.70
2023-03-07T10:41:17.747Z,2.80
2023-03-07T10:43:45.916Z,5.88
2023-03-07T10:46:27.179Z,5.45
2023-03-07T10:49:20.212Z,4.45
2023-03-07T10:52:12.951Z,4.72
2023-03-07T10:54:39.834Z,2.83
2023-03-07T10:57:10.627Z,4.82
2023-03-07T10:59:39.999Z,4.07
2023-03-07T11:02:28.683Z,5.10
2023-03-07T11:04:55.561Z,7.55
2023-03-07T11:07:34.459Z,5.07
2023-03-07T11:10:21.956Z,4.30
2023-03-07T11:12:48.977Z,4.55
2023-03-07T11:15:23.530Z,5.32
2023-03-07T11:17:51.962Z,4.90
2023-03-07T11:20:23.716Z,5.37
2023-03-07T11:23:07.384Z,5.07
2023-03-07T11:25:36.478Z,3.15
2023-03-07T11:28:03.740Z,3.53
2023-03-07T11:30:35.964Z,1.55
2023-03-07T11:33:22.464Z,5.13
2023-03-07T11:36:04.338Z,4.25
2023-03-07T11:39:05.689Z,4.20
2023-03-07T11:41:37.302Z,2.58
2023-03-07T11:44:31.083Z,3.20
2023-03-07T11:47:22.817Z,6.70
2023-03-07T11:50:19.672Z,4.50
2023-03-07T11:53:23.325Z,2.47
2023-03-07T11:55:57.834Z,3.22
2023-03-07T11:58:48.240Z,3.55
2023-03-07T12:01:44.450Z,3.63
2023-03-07T12:04:45.154Z,3.30
2023-03-07T12:07:27.972Z,4.65
2023-03-07T12:10:22.016Z,4.53
2023-03-07T12:13:19.473Z,3.22
2023-03-07T12:16:05.314Z,3.10
2023-03-07T12:18:44.079Z,3.55
2023-03-07T12:21:33.902Z,3.90
2023-03-07T12:24:06.919Z,4.00
2023-03-07T12:26:50.421Z,3.88
2023-03-07T12:29:37.506Z,1.73
2023-03-07T12:32:12.027Z,2.88
2023-03-07T12:34:43.768Z,1.52
2023-03-07T12:37:18.168Z,4.40
2023-03-07T12:39:59.307Z,2.10
2023-03-07T12:42:39.067Z,3.10
2023-03-07T12:45:13.405Z,2.72
2023-03-07T12:47:53.812Z,3.97
2023-03-07T12:50:43.753Z,5.85
2023-03-07T12:53:34.736Z,1.88
2023-03-07T12:56:25.718Z,1.77
2023-03-07T12:59:13.167Z,2.92
2023-03-07T13:01:48.804Z,3.05
2023-03-07T13:04:21.993Z,2.70
2023-03-07T13:06:49.605Z,5.30
2023-03-07T13:09:24.959Z,4.53
2023-03-07T13:12:31.712Z,1.83
2023-03-07T13:15:18.144Z,3.05
2023-03-07T13:17:44.936Z,2.72
2023-03-07T13:20:35.880Z,3.42
2023-03-07T13:23:21.917Z,5.00
2023-03-07T13:26:03.490Z,2.97
2023-03-07T13:28:39.420Z,4.65
2023-03-07T13:31:12.306Z,4.60
2023-03-07T13:33:39.108Z,2.42
2023-03-07T13:36:31.416Z,4.57
2023-03-07T13:38:58.208Z,3.90
2023-03-07T13:41:46.168Z,4.03
2023-03-07T13:44:36.750Z,3.42
2023-03-07T13:47:04.917Z,3.10
2023-03-07T13:49:40.773Z,6.93
2023-03-07T13:52:30.256Z,5.43
2023-03-07T13:54:59.369Z,2.42
2023-03-07T13:57:33.786Z,7.43
2023-03-07T14:00:02.334Z,8.13
2023-03-07T14:02:43.602Z,2.93
2023-03-07T14:05:10.794Z,3.85
2023-03-07T14:07:41.243Z,2.65
2023-03-07T14:10:22.502Z,2.58
2023-03-07T14:13:09.334Z,3.15
2023-03-07T14:15:42.642Z,2.90
2023-03-07T14:18:24.218Z,2.88
2023-03-07T14:21:26.041Z,3.58
2023-03-07T14:24:08.027Z,2.22
2023-03-07T14:26:43.124Z,4.97
2023-03-07T14:29:22.163Z,3.77
2023-03-07T14:31:54.371Z,5.22
2023-03-07T14:34:31.613Z,3.35
2023-03-07T14:37:21.041Z,3.67
2023-03-07T14:39:59.874Z,2.17
2023-03-07T14:42:35.343Z,4.83
2023-03-07T14:45:30.848Z,3.83
2023-03-07T14:48:14.051Z,5.18
2023-03-07T14:50:44.227Z,1.73
2023-03-07T14:53:14.934Z,2.45
2023-03-07T14:55:44.747Z,2.40
2023-03-07T14:58:21.179Z,3.67
2023-03-07T15:01:15.860Z,2.38
2023-03-07T15:03:51.461Z,3.80
2023-03-07T15:06:23.868Z,4.30
2023-03-07T15:08:52.257Z,3.37
2023-03-07T15:11:40.450Z,4.25
2023-03-07T15:14:13.965Z,3.80
2023-03-07T15:16:47.004Z,4.13
2023-03-07T15:19:24.453Z,4.70
2023-03-07T15:22:01.532Z,3.57
2023-03-07T15:24:38.394Z,3.85
2023-03-07T15:27:10.409Z,2.53
2023-03-07T15:29:39.134Z,2.42
2023-03-07T15:32:07.290Z,2.08
2023-03-07T15:34:37.830Z,4.23
2023-03-07T15:37:26.651Z,4.00
2023-03-07T15:39:57.743Z,2.45
2023-03-07T15:42:25.370Z,2.00
2023-03-07T15:44:59.969Z,3.33
2023-03-07T15:47:29.688Z,4.10
2023-03-07T15:49:59.914Z,3.13
2023-03-07T15:52:33.600Z,2.78
2023-03-07T15:55:05.303Z,8.82
2023-03-07T15:57:37.308Z,2.80
2023-03-07T16:00:16.584Z,4.10
2023-03-07T16:02:48.428Z,1.80
2023-03-07T16:05:24.295Z,3.17
2023-03-07T16:07:53.187Z,1.33
2023-03-07T16:10:21.659Z,2.28
2023-03-07T16:12:49.374Z,2.90
2023-03-07T16:15:18.702Z,4.70
2023-03-07T16:17:46.967Z,2.42
2023-03-07T16:20:15.787Z,3.03
2023-03-07T16:22:44.332Z,2.22
2023-03-07T16:25:11.793Z,3.17
2023-03-07T16:27:39.313Z,2.10
2023-03-07T16:30:15.601Z,4.82
2023-03-07T16:32:42.719Z,4.18
2023-03-07T16:35:16.518Z,2.67
2023-03-07T16:37:43.395Z,3.17
2023-03-07T16:40:11.870Z,2.35
2023-03-07T16:42:41.579Z,3.47
2023-03-07T16:45:19.935Z,3.03
2023-03-07T16:47:47.856Z,3.42
2023-03-07T16:50:21.087Z,2.00
2023-03-07T16:52:47.831Z,4.07
2023-03-07T16:55:16.365Z,4.40
2023-03-07T16:57:49.207Z,5.18
2023-03-07T17:00:18.749Z,3.30
2023-03-07T17:02:46.197Z,3.23
2023-03-07T17:05:25.301Z,4.68
2023-03-07T17:07:53.685Z,4.05
2023-03-07T17:10:21.003Z,3.47
2023-03-07T17:12:50.026Z,3.60
2023-03-07T17:15:19.931Z,8.50
2023-03-07T17:17:46.863Z,5.10
2023-03-07T17:20:22.372Z,4.78
2023-03-07T17:22:53.827Z,4.97
2023-03-07T17:25:21.380Z,4.38
2023-03-07T17:27:57.291Z,7.33
2023-03-07T17:30:27.112Z,4.50
2023-03-07T17:32:54.301Z,3.30
2023-03-07T17:35:21.824Z,4.63
2023-03-07T17:37:52.833Z,6.47
2023-03-07T17:40:21.323Z,3.80
2023-03-07T17:42:52.117Z,3.08
2023-03-07T17:45:19.341Z,3.00
2023-03-07T17:47:53.993Z,4.18
2023-03-07T17:50:25.538Z,3.75
2023-03-07T17:52:56.043Z,3.17
2023-03-07T17:55:26.008Z,4.68
2023-03-07T17:57:52.843Z,2.40
2023-03-07T18:00:21.020Z,2.08
2023-03-07T18:02:48.334Z,2.50
2023-03-07T18:05:15.330Z,5.18
2023-03-07T18:07:42.594Z,3.83
2023-03-07T18:10:11.577Z,3.15
2023-03-07T18:12:39.228Z,3.80
2023-03-07T18:15:18.064Z,1.63
2023-03-07T18:17:48.865Z,3.83
2023-03-07T18:20:17.790Z,5.43
2023-03-07T18:22:44.806Z,3.28
2023-03-07T18:25:14.122Z,4.35
2023-03-07T18:27:40.902Z,3.72
2023-03-07T18:30:08.229Z,3.85
2023-03-07T18:32:35.030Z,5.32
2023-03-07T18:35:01.802Z,6.93
2023-03-07T18:37:28.992Z,7.05
2023-03-07T18:39:56.128Z,7.07
2023-03-07T18:42:22.945Z,6.57
2023-03-07T18:44:49.707Z,7.17
2023-03-07T18:47:16.934Z,6.25
2023-03-07T18:49:43.671Z,6.32
2023-03-07T18:52:10.373Z,7.03
2023-03-07T18:54:37.146Z,5.75
2023-03-07T18:57:03.896Z,10.55
2023-03-07T18:59:30.905Z,26.05
2023-03-07T19:02:02.747Z,12.48
2023-03-07T19:04:31.352Z,10.52
2023-03-07T19:06:59.632Z,12.90
2023-03-07T19:09:26.802Z,9.45
2023-03-07T19:11:53.580Z,9.32
2023-03-07T19:14:20.338Z,9.17
2023-03-07T19:16:47.142Z,8.05
2023-03-07T19:19:13.965Z,11.27
2023-03-07T19:21:40.720Z,11.93
2023-03-07T19:24:11.243Z,12.07
2023-03-07T19:26:38.121Z,11.20
2023-03-07T19:29:04.909Z,20.67
2023-03-07T19:31:32.709Z,11.00
2023-03-07T19:34:01.996Z,12.50
2023-03-07T19:36:31.722Z,8.82
2023-03-07T19:38:59.421Z,11.40
2023-03-07T19:41:28.639Z,8.60
2023-03-07T19:43:56.866Z,9.27
2023-03-07T19:46:23.718Z,10.68
2023-03-07T19:48:50.442Z,10.80
2023-03-07T19:51:23.505Z,9.10
2023-03-07T19:53:50.939Z,10.93
2023-03-07T19:56:29.562Z,7.28
2023-03-07T19:58:58.076Z,7.10
2023-03-07T20:01:25.469Z,8.17
2023-03-07T20:03:53.582Z,6.80
2023-03-07T20:06:26.672Z,7.68
2023-03-07T20:08:54.728Z,7.97
2023-03-07T20:11:27.529Z,6.78
2023-03-07T20:13:55.989Z,7.97
2023-03-07T20:16:23.349Z,9.25
2023-03-07T20:18:52.136Z,8.90
2023-03-07T20:21:20.209Z,6.57
2023-03-07T20:23:48.383Z,7.20
2023-03-07T20:26:18.280Z,5.25
2023-03-07T20:28:45.303Z,8.10
2023-03-07T20:31:13.246Z,7.18
2023-03-07T20:33:45.476Z,6.07
2023-03-07T20:36:16.527Z,6.15
2023-03-07T20:38:43.336Z,6.60
2023-03-07T20:41:14.465Z,4.63
2023-03-07T20:43:41.172Z,7.43
2023-03-07T20:46:12.639Z,5.60
2023-03-07T20:48:40.921Z,9.05
2023-03-07T20:51:19.715Z,6.80
2023-03-07T20:53:50.869Z,6.95
2023-03-07T20:56:18.695Z,5.45
2023-03-07T20:58:46.116Z,9.38
2023-03-07T21:01:15.906Z,6.37
2023-03-07T21:03:42.894Z,6.78
2023-03-07T21:06:10.091Z,6.18
2023-03-07T21:08:37.684Z,6.82
2023-03-07T21:11:09.838Z,6.43
2023-03-07T21:13:38.947Z,7.13
2023-03-07T21:16:13.088Z,8.82
2023-03-07T21:18:40.505Z,10.02
2023-03-07T21:21:10.366Z,6.47
2023-03-07T21:23:37.615Z,6.35
2023-03-07T21:26:10.123Z,6.18
2023-03-07T21:28:37.892Z,8.10
2023-03-07T21:31:12.042Z,7.73
2023-03-07T21:33:40.322Z,6.45
2023-03-07T21:36:07.622Z,5.45
2023-03-07T21:38:34.611Z,6.35
2023-03-07T21:41:01.591Z,5.43
2023-03-07T21:43:28.274Z,5.70
2023-03-07T21:45:55.690Z,4.40
2023-03-07T21:48:22.520Z,5.53
2023-03-07T21:50:51.814Z,5.68
2023-03-07T21:53:19.222Z,7.57
2023-03-07T21:55:57.993Z,7.47
2023-03-07T21:58:26.124Z,4.07
2023-03-07T22:00:56.106Z,4.28
2023-03-07T22:03:24.803Z,5.25
2023-03-07T22:05:51.698Z,8.13
2023-03-07T22:08:20.414Z,4.35
2023-03-07T22:10:57.803Z,5.18
2023-03-07T22:13:24.576Z,5.60
2023-03-07T22:15:59.343Z,10.40
2023-03-07T22:18:27.086Z,5.65
2023-03-07T22:20:55.152Z,5.40
2023-03-07T22:23:28.271Z,4.40
2023-03-07T22:25:55.000Z,3.93
2023-03-07T22:28:22.988Z,6.88
2023-03-07T22:30:50.110Z,9.52
2023-03-07T22:33:18.578Z,11.27
2023-03-07T22:35:45.284Z,7.43
2023-03-07T22:38:12.054Z,4.28
2023-03-07T22:40:39.399Z,4.93
2023-03-07T22:43:06.356Z,5.03
2023-03-07T22:45:33.062Z,5.13
2023-03-07T22:47:59.801Z,6.07
2023-03-07T22:50:26.607Z,5.93
2023-03-07T22:52:54.825Z,3.92
2023-03-07T22:55:21.812Z,6.43
2023-03-07T22:57:48.739Z,4.25
2023-03-07T23:00:15.778Z,3.78
2023-03-07T23:02:42.674Z,4.80
2023-03-07T23:05:10.345Z,4.25
2023-03-07T23:07:37.111Z,3.97
2023-03-07T23:10:04.034Z,3.83
2023-03-07T23:12:30.818Z,4.67
2023-03-07T23:14:57.674Z,4.72
2023-03-07T23:17:24.446Z,4.90
2023-03-07T23:19:52.382Z,5.72
2023-03-07T23:22:19.101Z,4.00
2023-03-07T23:24:46.022Z,3.60
2023-03-07T23:27:12.870Z,7.40
2023-03-07T23:29:39.669Z,3.20
2023-03-07T23:32:06.525Z,6.37
2023-03-07T23:34:35.365Z,2.60
2023-03-07T23:37:02.231Z,5.20
2023-03-07T23:39:28.961Z,3.92
2023-03-07T23:41:55.704Z,4.22
2023-03-07T23:44:22.437Z,3.95
2023-03-07T23:46:49.974Z,3.85
2023-03-07T23:49:16.751Z,4.63
2023-03-07T23:51:44.595Z,2.13
2023-03-07T23:54:11.369Z,3.53
2023-03-07T23:56:38.142Z,3.75
2023-03-07T23:59:04.858Z,4.37
